Time;durP1;ratioP1;P1;durP2;ratioP2;P2;SDS_P1;SDS_P2;PMS_P1;PMS_P2;Temp;Humidity;BMP_temperature;BMP_pressure;BME280_temperature;BME280_humidity;BME280_pressure;Samples;Min_cycle;Max_cycle;Signal;HPM_P1;HPM_P2
2022/01/19 00:01:12;;;;;;;0.93;0.93;;;17.60;64.60;;;;;;10454077;28;21613;-65
2022/01/19 00:06:34;;;;;;;2.23;1.27;;;17.60;64.60;;;;;;10453126;28;20228;-65
2022/01/19 00:11:56;;;;;;;1.20;1.10;;;17.60;64.60;;;;;;10491346;28;20564;-65
2022/01/19 00:17:20;;;;;;;1.23;1.10;;;17.60;64.60;;;;;;10492531;28;20682;-65
2022/01/19 00:22:42;;;;;;;1.10;0.73;;;17.60;64.50;;;;;;10483539;28;20212;-65
2022/01/19 00:28:04;;;;;;;1.23;1.13;;;17.60;64.60;;;;;;10484107;28;20742;-65
2022/01/19 00:33:28;;;;;;;1.30;1.00;;;17.60;64.50;;;;;;10464369;28;20204;-65
2022/01/19 00:38:50;;;;;;;1.30;1.07;;;17.60;64.50;;;;;;10474466;28;20564;-65
2022/01/19 00:44:12;;;;;;;2.20;1.20;;;17.60;64.50;;;;;;10482884;28;20192;-65
2022/01/19 00:49:36;;;;;;;1.20;1.00;;;17.60;64.50;;;;;;10459460;28;20209;-65
2022/01/19 00:54:58;;;;;;;1.50;1.10;;;17.60;64.50;;;;;;10490304;28;20205;-65
2022/01/19 01:00:23;;;;;;;1.57;1.00;;;17.60;64.50;;;;;;10484909;28;20209;-66
2022/01/19 01:05:46;;;;;;;1.40;1.10;;;17.60;64.40;;;;;;10467538;28;20220;-65
2022/01/19 01:11:08;;;;;;;1.10;1.00;;;17.60;64.40;;;;;;10479601;28;20220;-65
2022/01/19 01:16:33;;;;;;;2.43;1.07;;;17.60;64.40;;;;;;10489371;28;20185;-65
2022/01/19 01:21:57;;;;;;;1.10;0.80;;;17.60;64.40;;;;;;10459391;28;20250;-65
2022/01/19 01:27:19;;;;;;;1.50;1.07;;;17.60;64.40;;;;;;10486301;28;20212;-65
2022/01/19 01:32:41;;;;;;;1.17;0.77;;;17.60;64.40;;;;;;10473650;28;20197;-65
2022/01/19 01:38:06;;;;;;;1.53;0.80;;;17.60;64.40;;;;;;10489163;28;20854;-65
2022/01/19 01:43:28;;;;;;;1.30;1.20;;;17.60;64.40;;;;;;10498600;28;20556;-65
2022/01/19 01:48:50;;;;;;;1.80;1.00;;;17.50;64.30;;;;;;10459104;28;20244;-65
2022/01/19 01:54:13;;;;;;;1.23;1.00;;;17.60;64.40;;;;;;10487834;28;20200;-65
2022/01/19 01:59:36;;;;;;;1.07;0.87;;;17.60;64.40;;;;;;10486306;28;20720;-65
2022/01/19 02:04:58;;;;;;;1.67;1.10;;;17.60;64.40;;;;;;10496637;28;20197;-66
2022/01/19 02:10:33;;;;;;;1.27;0.90;;;17.50;64.30;;;;;;10497784;28;20220;-65
2022/01/19 02:16:14;;;;;;;1.20;0.90;;;17.60;64.40;;;;;;10458751;28;20189;-65
2022/01/19 02:21:39;;;;;;;2.03;0.87;;;17.50;64.30;;;;;;10460967;28;20220;-65
2022/01/19 02:27:09;;;;;;;1.60;1.17;;;17.60;64.40;;;;;;10480032;28;20204;-65
2022/01/19 02:43:51;;;;;;;0.80;0.70;;;17.50;64.30;;;;;;10493854;28;20207;-65
2022/01/19 02:49:16;;;;;;;0.70;0.60;;;17.50;64.30;;;;;;10481138;28;20699;-65
2022/01/19 02:54:40;;;;;;;2.43;0.97;;;17.50;64.30;;;;;;10459972;28;20205;-65
2022/01/19 03:11:25;;;;;;;1.40;1.10;;;17.50;64.20;;;;;;10469731;28;20208;-65
2022/01/19 03:16:47;;;;;;;1.03;0.80;;;17.50;64.20;;;;;;10456339;28;20204;-65
2022/01/19 03:22:09;;;;;;;0.97;0.70;;;17.50;64.20;;;;;;10455148;28;20225;-65
2022/01/19 03:27:33;;;;;;;1.93;0.97;;;17.50;64.20;;;;;;10457442;28;20288;-66
2022/01/19 03:32:55;;;;;;;1.73;1.00;;;17.50;64.20;;;;;;10486251;28;20216;-66
2022/01/19 03:38:17;;;;;;;1.27;0.70;;;17.60;64.30;;;;;;10492522;28;20228;-66
2022/01/19 03:43:40;;;;;;;1.37;0.90;;;17.50;64.20;;;;;;10469260;28;20698;-65
2022/01/19 03:49:12;;;;;;;0.87;0.80;;;17.50;64.20;;;;;;10489437;28;20215;-65
2022/01/19 03:54:36;;;;;;;1.50;0.87;;;17.50;64.10;;;;;;10494163;28;20583;-66
2022/01/19 04:00:00;;;;;;;1.50;0.90;;;17.50;64.20;;;;;;10491377;28;20201;-65
2022/01/19 04:05:25;;;;;;;2.60;1.10;;;17.50;64.20;;;;;;10489781;28;20188;-68
2022/01/19 04:10:47;;;;;;;2.00;1.10;;;17.50;64.20;;;;;;10492884;28;20220;-65
2022/01/19 04:16:11;;;;;;;1.27;0.70;;;17.50;64.10;;;;;;10492324;28;20193;-64
2022/01/19 04:21:33;;;;;;;1.60;0.70;;;17.50;64.20;;;;;;10460289;22;20694;-67
2022/01/19 04:32:43;;;;;;;1.90;0.80;;;17.50;64.20;;;;;;10408858;28;20743;-68
2022/01/19 05:06:40;;;;;;;3.07;1.17;;;17.60;64.00;;;;;;10449108;28;20343;-68
2022/01/19 05:17:43;;;;;;;1.97;1.00;;;17.60;64.10;;;;;;10449385;28;20268;-67
2022/01/19 05:23:06;;;;;;;0.80;0.80;;;17.60;64.10;;;;;;10449440;28;20233;-68
2022/01/19 05:28:28;;;;;;;0.97;0.70;;;17.60;64.20;;;;;;10439874;28;20694;-69
2022/01/19 05:33:51;;;;;;;1.50;0.80;;;17.60;64.10;;;;;;10446089;28;20213;-68
2022/01/19 05:39:14;;;;;;;1.50;1.00;;;17.60;64.20;;;;;;10449326;28;20558;-68
2022/01/19 05:44:37;;;;;;;2.20;0.80;;;17.60;64.20;;;;;;10450061;28;20197;-68
2022/01/19 05:49:59;;;;;;;1.73;0.90;;;17.60;64.30;;;;;;10411674;28;20603;-68
2022/01/19 05:55:23;;;;;;;1.47;1.00;;;17.60;64.20;;;;;;10449305;28;20272;-70
2022/01/19 06:00:45;;;;;;;2.20;1.20;;;17.60;64.30;;;;;;10449377;28;20682;-70
2022/01/19 06:06:07;;;;;;;1.70;1.10;;;17.60;64.30;;;;;;10451705;28;20197;-69
2022/01/19 06:11:30;;;;;;;2.20;1.10;;;17.60;64.30;;;;;;10456154;28;20221;-69
2022/01/19 06:16:53;;;;;;;2.90;1.20;;;17.60;64.30;;;;;;10457283;28;20197;-69
2022/01/19 06:22:17;;;;;;;1.73;1.00;;;17.60;64.30;;;;;;10453691;28;20233;-67
2022/01/19 06:27:40;;;;;;;1.33;0.93;;;17.60;64.20;;;;;;10456634;28;20219;-66
2022/01/19 06:33:03;;;;;;;2.90;1.40;;;17.60;64.20;;;;;;10452738;28;20228;-66
2022/01/19 06:38:25;;;;;;;1.93;1.30;;;17.60;64.20;;;;;;10456905;28;20189;-69
2022/01/19 06:43:48;;;;;;;1.63;1.10;;;17.60;64.20;;;;;;10456597;28;20220;-71
2022/01/19 06:49:11;;;;;;;2.80;1.00;;;17.60;64.20;;;;;;10455276;28;20694;-68
2022/01/19 06:54:33;;;;;;;2.00;1.10;;;17.60;64.20;;;;;;10456852;28;20197;-67
2022/01/19 06:59:57;;;;;;;2.53;1.37;;;17.60;64.30;;;;;;10452841;28;20216;-68
2022/01/19 07:05:19;;;;;;;2.50;1.30;;;17.60;64.20;;;;;;10454714;28;20201;-68
2022/01/19 07:10:41;;;;;;;2.23;1.30;;;17.60;64.20;;;;;;10444257;28;20698;-69
2022/01/19 07:16:05;;;;;;;2.27;1.47;;;17.60;64.00;;;;;;10445286;28;20602;-67
2022/01/19 07:21:27;;;;;;;3.03;1.50;;;17.60;63.90;;;;;;10446606;28;20229;-68
2022/01/19 07:26:50;;;;;;;2.40;1.30;;;17.60;63.80;;;;;;10442688;28;20213;-67
2022/01/19 07:32:13;;;;;;;2.00;1.50;;;17.60;63.90;;;;;;10419514;28;20714;-67
2022/01/19 07:37:36;;;;;;;2.17;1.40;;;17.60;64.00;;;;;;10419500;28;20280;-67
2022/01/19 07:42:58;;;;;;;3.13;1.87;;;17.60;64.20;;;;;;10463108;28;20567;-67
2022/01/19 07:48:21;;;;;;;3.47;1.43;;;17.60;64.30;;;;;;10451692;28;20217;-64
2022/01/19 07:53:45;;;;;;;2.50;1.77;;;17.60;64.40;;;;;;10449502;28;20213;-65
2022/01/19 07:59:07;;;;;;;3.23;1.70;;;17.60;64.40;;;;;;10429449;28;20189;-67
2022/01/19 08:04:30;;;;;;;2.90;1.50;;;17.50;64.50;;;;;;10426022;28;20229;-67
2022/01/19 08:09:52;;;;;;;3.27;1.90;;;17.60;64.60;;;;;;10430999;28;20229;-67
2022/01/19 08:15:15;;;;;;;2.80;1.60;;;17.50;64.60;;;;;;10449937;28;20197;-67
2022/01/19 08:20:40;;;;;;;2.63;1.60;;;17.60;64.60;;;;;;10446821;28;20221;-67
2022/01/19 08:26:02;;;;;;;2.53;1.53;;;17.50;64.80;;;;;;10444939;28;20209;-67
2022/01/19 08:31:25;;;;;;;2.73;1.47;;;17.50;64.60;;;;;;10443469;28;20225;-67
2022/01/19 08:36:48;;;;;;;2.83;1.40;;;17.50;64.90;;;;;;10435290;28;20208;-68
2022/01/19 08:42:11;;;;;;;3.27;1.90;;;17.60;65.10;;;;;;10434015;28;20299;-67
2022/01/19 08:47:33;;;;;;;3.33;2.23;;;17.50;64.30;;;;;;10440064;28;20224;-67
2022/01/19 08:52:57;;;;;;;5.07;2.33;;;17.50;64.10;;;;;;10438692;28;20223;-67
2022/01/19 08:58:19;;;;;;;4.10;1.90;;;17.50;64.10;;;;;;10448587;28;20674;-67
2022/01/19 09:03:41;;;;;;;3.40;1.80;;;17.50;64.10;;;;;;10439084;28;20682;-67
2022/01/19 09:09:05;;;;;;;2.93;2.07;;;17.50;64.30;;;;;;10433079;28;20214;-67
2022/01/19 09:14:27;;;;;;;2.37;1.60;;;17.50;64.80;;;;;;10441971;28;20221;-64
2022/01/19 09:19:50;;;;;;;2.60;1.73;;;17.50;64.00;;;;;;10433295;28;20213;-65
2022/01/19 09:25:15;;;;;;;3.23;2.07;;;17.50;63.80;;;;;;10449577;28;20193;-65
2022/01/19 09:30:40;;;;;;;3.47;1.93;;;17.50;63.80;;;;;;10431891;28;20221;-67
2022/01/19 09:36:18;;;;;;;2.30;1.60;;;17.50;63.80;;;;;;10448433;28;20201;-68
2022/01/19 09:41:41;;;;;;;3.07;2.07;;;17.50;64.30;;;;;;10438418;28;20220;-67
2022/01/19 09:47:04;;;;;;;2.57;1.50;;;17.50;63.80;;;;;;10456405;28;20193;-67
2022/01/19 09:52:26;;;;;;;3.37;1.83;;;17.50;63.80;;;;;;10431613;28;20228;-67
2022/01/19 09:57:50;;;;;;;2.67;1.60;;;17.50;63.90;;;;;;10455788;28;20193;-67
2022/01/19 10:03:16;;;;;;;2.10;1.63;;;17.40;63.90;;;;;;10442915;28;20235;-67
2022/01/19 10:08:41;;;;;;;2.83;1.50;;;17.50;64.00;;;;;;10452218;28;20213;-67
2022/01/19 10:19:49;;;;;;;2.70;1.23;;;17.60;64.40;;;;;;10460752;23;20737;-65
2022/01/19 10:25:11;;;;;;;2.63;1.50;;;17.60;64.50;;;;;;10516535;28;20210;-65
2022/01/19 10:30:35;;;;;;;1.57;1.40;;;17.60;64.40;;;;;;10533962;28;20228;-65
2022/01/19 10:35:59;;;;;;;2.93;1.70;;;17.60;64.10;;;;;;10503236;28;20200;-65
2022/01/19 10:41:22;;;;;;;2.77;1.63;;;17.60;64.10;;;;;;10530951;28;20216;-64
2022/01/19 10:46:46;;;;;;;1.63;1.30;;;17.60;64.20;;;;;;10529044;28;20202;-64
2022/01/19 10:52:08;;;;;;;2.20;1.53;;;17.60;64.20;;;;;;10527599;28;20222;-64
2022/01/19 10:57:32;;;;;;;3.60;1.50;;;17.60;64.30;;;;;;10544087;27;20654;-64
2022/01/19 11:02:59;;;;;;;1.23;1.13;;;17.60;64.30;;;;;;10536633;28;20226;-63
2022/01/19 11:08:24;;;;;;;2.10;1.43;;;17.60;64.20;;;;;;10520097;28;20200;-64
2022/01/19 11:13:46;;;;;;;1.40;1.07;;;17.60;64.00;;;;;;10513152;28;20211;-64
2022/01/19 11:19:10;;;;;;;2.03;1.30;;;17.60;64.00;;;;;;10522465;28;20214;-64
2022/01/19 11:24:41;;;;;;;1.63;1.53;;;17.60;63.80;;;;;;10517991;28;20180;-65
2022/01/19 11:30:18;;;;;;;2.30;1.87;;;17.60;63.80;;;;;;10522450;28;20230;-65
2022/01/19 11:35:44;;;;;;;1.50;1.40;;;17.60;63.00;;;;;;10496213;28;20702;-65
2022/01/19 11:41:45;;;;;;;2.43;1.47;;;17.60;63.00;;;;;;10515830;28;20217;-65
2022/01/19 11:47:21;;;;;;;2.00;1.77;;;17.60;62.80;;;;;;10527677;28;20188;-65
2022/01/19 11:53:08;;;;;;;2.20;1.70;;;17.50;63.10;;;;;;10530631;28;20219;-65
2022/01/19 11:58:30;;;;;;;2.33;1.77;;;17.50;62.90;;;;;;10514704;28;20204;-65
2022/01/19 12:03:52;;;;;;;2.63;1.80;;;17.50;63.10;;;;;;10507901;28;20711;-65
2022/01/19 12:09:17;;;;;;;1.53;1.43;;;17.40;63.10;;;;;;10530235;28;20226;-66
2022/01/19 12:14:39;;;;;;;1.80;1.60;;;17.50;63.20;;;;;;10537611;28;20199;-65
2022/01/19 12:20:01;;;;;;;2.77;2.10;;;17.40;63.10;;;;;;10537863;28;20227;-64
2022/01/19 12:25:25;;;;;;;1.93;1.73;;;17.40;63.10;;;;;;10523830;28;20281;-65
2022/01/19 12:30:47;;;;;;;2.20;1.73;;;17.40;63.20;;;;;;10531873;28;20824;-65
2022/01/19 12:36:42;;;;;;;1.80;1.53;;;17.40;63.30;;;;;;10504959;28;20197;-65
2022/01/19 12:42:13;;;;;;;2.53;2.20;;;17.40;62.90;;;;;;10520061;28;20219;-65
2022/01/19 12:47:45;;;;;;;1.97;1.73;;;17.40;63.30;;;;;;10541612;28;20192;-64
2022/01/19 12:53:14;;;;;;;3.07;1.90;;;17.40;63.20;;;;;;10516136;28;20216;-66
2022/01/19 12:58:40;;;;;;;3.22;2.28;;;17.40;63.30;;;;;;10495316;28;20434;-64
2022/01/19 13:04:02;;;;;;;2.47;1.77;;;18.00;61.90;;;;;;10536289;28;20187;-64
2022/01/19 13:09:30;;;;;;;3.83;1.60;;;17.70;63.40;;;;;;10517085;28;20238;-63
2022/01/19 13:14:57;;;;;;;1.63;1.53;;;17.60;63.90;;;;;;10537801;28;20567;-63
2022/01/19 13:20:22;;;;;;;2.57;1.53;;;17.60;63.90;;;;;;10543042;28;20871;-64
2022/01/19 13:25:44;;;;;;;1.50;1.40;;;17.60;64.00;;;;;;10515952;28;20202;-65
2022/01/19 13:31:12;;;;;;;2.20;1.30;;;17.60;63.90;;;;;;10536964;28;20227;-65
2022/01/19 13:36:36;;;;;;;3.10;1.80;;;17.60;63.80;;;;;;10501453;28;20192;-65
2022/01/19 13:42:00;;;;;;;2.13;1.50;;;17.60;64.00;;;;;;10517660;28;20203;-64
2022/01/19 13:47:30;;;;;;;2.27;1.70;;;17.60;63.70;;;;;;10516197;28;20196;-65
2022/01/19 13:52:52;;;;;;;1.63;1.50;;;17.60;63.80;;;;;;10517056;28;20217;-64
2022/01/19 13:58:16;;;;;;;1.47;1.37;;;17.60;63.80;;;;;;10529524;28;20199;-64
2022/01/19 14:03:48;;;;;;;1.73;1.60;;;17.60;63.70;;;;;;10508446;28;20651;-65
2022/01/19 14:09:16;;;;;;;2.50;1.70;;;17.60;63.70;;;;;;10504725;28;20821;-66
2022/01/19 14:14:42;;;;;;;2.00;1.80;;;17.60;63.70;;;;;;10527515;28;20196;-66
2022/01/19 14:20:15;;;;;;;2.43;1.60;;;17.60;63.50;;;;;;10511831;28;20243;-66
2022/01/19 14:25:37;;;;;;;2.00;1.80;;;17.60;62.90;;;;;;10533173;28;20199;-67
2022/01/19 14:31:03;;;;;;;1.83;1.67;;;17.50;63.10;;;;;;10528596;28;20219;-67
2022/01/19 14:36:27;;;;;;;1.97;1.67;;;17.50;63.10;;;;;;10531935;28;20223;-66
2022/01/19 14:41:53;;;;;;;2.20;2.00;;;17.60;63.40;;;;;;10525082;28;20234;-68
2022/01/19 14:47:37;;;;;;;4.70;1.90;;;17.50;63.60;;;;;;10526486;28;20274;-68
2022/01/19 14:53:01;;;;;;;1.87;1.70;;;17.60;63.10;;;;;;10510382;28;20269;-67
2022/01/19 14:58:26;;;;;;;2.43;2.17;;;17.50;63.20;;;;;;10557374;28;20219;-67
2022/01/19 15:03:48;;;;;;;2.53;1.70;;;17.50;63.20;;;;;;10523056;28;20255;-64
2022/01/19 15:09:13;;;;;;;1.70;1.50;;;17.60;63.80;;;;;;10525534;28;20223;-64
2022/01/19 15:14:36;;;;;;;2.23;2.03;;;17.60;63.90;;;;;;10522271;28;20679;-64
2022/01/19 15:19:58;;;;;;;2.30;2.10;;;17.60;63.80;;;;;;10500804;28;20223;-64
2022/01/19 15:25:21;;;;;;;2.63;2.20;;;17.60;63.80;;;;;;10511581;28;20196;-64
2022/01/19 15:30:44;;;;;;;2.03;1.83;;;17.60;63.70;;;;;;10512845;28;20223;-64
2022/01/19 15:36:07;;;;;;;1.70;1.60;;;17.70;63.60;;;;;;10531997;28;20195;-64
2022/01/19 15:41:31;;;;;;;2.37;1.87;;;17.70;63.60;;;;;;10525483;28;20301;-64
2022/01/19 15:46:53;;;;;;;2.30;1.87;;;17.70;63.60;;;;;;10491820;28;20196;-64
2022/01/19 15:52:15;;;;;;;2.60;1.90;;;17.70;63.50;;;;;;10522944;28;20705;-67
2022/01/19 15:57:38;;;;;;;2.20;2.00;;;17.70;63.30;;;;;;10525251;28;20666;-67
2022/01/19 16:03:04;;;;;;;2.20;1.97;;;17.60;63.00;;;;;;10512760;28;20219;-67
2022/01/19 16:08:26;;;;;;;3.20;2.27;;;17.60;62.90;;;;;;10532553;28;20246;-67
2022/01/19 16:13:50;;;;;;;2.07;1.87;;;17.60;63.00;;;;;;10508169;28;20243;-67
2022/01/19 16:19:12;;;;;;;3.07;2.30;;;17.60;63.00;;;;;;10508078;28;20655;-67
2022/01/19 16:30:15;;;;;;;2.63;1.60;;;17.50;63.20;;;;;;10505039;28;20253;-66
2022/01/19 16:35:38;;;;;;;2.10;1.83;;;17.50;63.30;;;;;;10500549;22;20606;-66
2022/01/19 16:41:01;;;;;;;2.10;1.80;;;17.50;63.80;;;;;;10486074;28;20216;-66
2022/01/19 16:46:24;;;;;;;2.40;2.07;;;17.50;63.70;;;;;;10470923;28;20197;-66
2022/01/19 16:51:47;;;;;;;3.07;1.80;;;17.50;63.60;;;;;;10479154;28;20744;-65
2022/01/19 16:57:09;;;;;;;2.10;1.90;;;17.50;63.60;;;;;;10514856;28;20211;-65
2022/01/19 17:02:33;;;;;;;2.23;1.90;;;17.50;63.60;;;;;;10526602;28;20223;-66
2022/01/19 17:07:55;;;;;;;1.93;1.83;;;17.50;63.70;;;;;;10523472;28;20199;-66
2022/01/19 17:13:29;;;;;;;1.90;1.70;;;17.50;63.60;;;;;;10520117;28;20224;-65
2022/01/19 17:18:53;;;;;;;2.03;1.83;;;17.50;63.70;;;;;;10527178;28;20282;-65
2022/01/19 17:24:15;;;;;;;2.50;2.00;;;17.50;64.00;;;;;;10508383;28;20213;-65
2022/01/19 17:29:38;;;;;;;2.67;2.10;;;17.50;64.00;;;;;;10501152;28;20761;-65
2022/01/19 17:35:03;;;;;;;2.90;1.80;;;17.60;64.80;;;;;;10531494;28;20196;-65
2022/01/19 17:40:25;;;;;;;1.80;1.70;;;17.60;64.30;;;;;;10512324;28;20220;-65
2022/01/19 17:45:54;;;;;;;1.80;1.70;;;17.60;64.40;;;;;;10490358;28;20193;-67
2022/01/19 17:51:38;;;;;;;2.27;1.57;;;17.50;64.40;;;;;;10493499;28;20272;-66
2022/01/19 17:57:00;;;;;;;1.70;1.53;;;17.60;64.40;;;;;;10523361;28;20618;-67
2022/01/19 18:02:23;;;;;;;2.30;1.80;;;17.50;64.50;;;;;;10521861;28;20412;-67
2022/01/19 18:07:46;;;;;;;1.90;1.70;;;18.60;61.10;;;;;;10520543;22;20691;-68
2022/01/19 18:13:09;;;;;;;1.43;1.33;;;18.10;62.90;;;;;;10482059;28;20212;-68
2022/01/19 18:18:31;;;;;;;1.50;1.40;;;17.90;63.50;;;;;;10488124;28;20197;-68
2022/01/19 18:23:55;;;;;;;3.23;1.33;;;17.80;63.70;;;;;;10487465;28;20269;-68
2022/01/19 18:29:18;;;;;;;1.77;1.67;;;17.70;63.90;;;;;;10495568;28;20220;-69
2022/01/19 18:34:40;;;;;;;1.70;1.33;;;17.70;63.80;;;;;;10496594;28;20215;-67
2022/01/19 18:40:05;;;;;;;1.93;1.70;;;17.70;63.80;;;;;;10496157;28;20552;-68
2022/01/19 18:45:27;;;;;;;2.27;1.50;;;17.70;63.80;;;;;;10497528;28;20192;-68
2022/01/19 18:50:49;;;;;;;1.90;1.40;;;17.70;63.80;;;;;;10497295;28;20228;-68
2022/01/19 18:56:14;;;;;;;1.67;1.57;;;17.70;63.90;;;;;;10491225;28;20204;-68
2022/01/19 19:01:36;;;;;;;1.47;1.37;;;17.70;63.50;;;;;;10494625;28;20296;-68
2022/01/19 19:06:59;;;;;;;1.80;1.70;;;17.70;63.90;;;;;;10484562;28;20200;-68
2022/01/19 19:12:22;;;;;;;1.70;1.40;;;17.70;63.80;;;;;;10492637;28;20833;-68
2022/01/19 19:17:45;;;;;;;1.70;1.40;;;17.70;63.80;;;;;;10537451;28;20657;-69
2022/01/19 19:23:07;;;;;;;2.83;1.50;;;17.70;63.70;;;;;;10537733;28;20211;-69
2022/01/19 19:28:31;;;;;;;3.60;1.57;;;17.70;63.70;;;;;;10499667;28;20215;-69
2022/01/19 19:33:53;;;;;;;1.83;1.20;;;17.70;63.80;;;;;;10493807;28;20588;-68
2022/01/19 19:39:15;;;;;;;1.43;1.30;;;17.70;63.80;;;;;;10486301;28;20196;-69
2022/01/19 19:44:39;;;;;;;1.30;1.20;;;17.70;63.80;;;;;;10493986;28;20220;-68
2022/01/19 19:50:02;;;;;;;2.97;1.40;;;17.70;63.80;;;;;;10492293;28;20204;-68
2022/01/19 19:55:26;;;;;;;1.40;1.30;;;17.70;64.00;;;;;;10494474;28;20267;-68
2022/01/19 20:00:50;;;;;;;1.80;1.50;;;17.70;63.80;;;;;;10486451;28;20215;-68
2022/01/19 20:06:13;;;;;;;1.80;1.40;;;17.80;63.80;;;;;;10487862;28;20391;-68
2022/01/19 20:11:40;;;;;;;2.23;1.40;;;17.70;63.80;;;;;;10484464;28;20226;-67
2022/01/19 20:17:04;;;;;;;1.67;1.57;;;17.80;63.90;;;;;;10489045;28;20667;-68
2022/01/19 20:22:27;;;;;;;3.00;1.40;;;17.70;63.90;;;;;;10493559;28;20211;-68
2022/01/19 20:27:50;;;;;;;2.10;1.20;;;17.70;63.90;;;;;;10492093;28;20656;-68
2022/01/19 20:33:13;;;;;;;1.70;1.23;;;17.70;63.80;;;;;;10486714;28;20212;-68
2022/01/19 20:38:38;;;;;;;1.57;1.13;;;17.70;63.80;;;;;;10493680;28;20199;-66
2022/01/19 20:44:00;;;;;;;1.60;1.13;;;17.70;63.90;;;;;;10490714;28;20701;-68
2022/01/19 20:49:24;;;;;;;1.40;1.10;;;17.70;63.90;;;;;;10491269;28;20215;-68
2022/01/19 20:54:46;;;;;;;1.57;1.30;;;17.70;64.00;;;;;;10492582;28;20244;-69
2022/01/19 21:00:11;;;;;;;1.80;1.40;;;17.70;64.00;;;;;;10470240;28;20188;-68
2022/01/19 21:05:35;;;;;;;1.90;1.10;;;17.70;64.00;;;;;;10486928;28;20204;-68
2022/01/19 21:10:57;;;;;;;2.43;1.30;;;17.70;64.00;;;;;;10482409;28;20223;-68
2022/01/19 21:16:20;;;;;;;1.60;1.20;;;17.70;64.00;;;;;;10486097;28;20655;-69
2022/01/19 21:21:43;;;;;;;2.27;1.37;;;17.70;64.00;;;;;;10487780;28;20204;-67
2022/01/19 21:27:06;;;;;;;1.30;0.90;;;17.70;64.00;;;;;;10483874;28;20675;-69
2022/01/19 21:32:28;;;;;;;1.93;1.07;;;17.70;63.90;;;;;;10490902;28;20263;-68
2022/01/19 21:37:52;;;;;;;2.60;1.20;;;17.70;63.90;;;;;;10485810;28;20204;-68
2022/01/19 21:43:14;;;;;;;2.60;1.27;;;17.70;63.80;;;;;;10497882;28;20215;-68
2022/01/19 21:48:36;;;;;;;2.33;1.20;;;17.70;63.90;;;;;;10476671;28;20197;-68
2022/01/19 21:54:00;;;;;;;3.03;1.40;;;17.70;63.90;;;;;;10473205;28;20216;-68
2022/01/19 21:59:22;;;;;;;2.63;1.40;;;17.70;63.90;;;;;;10485553;28;20193;-69
2022/01/19 22:04:44;;;;;;;2.67;1.23;;;17.70;63.90;;;;;;10499871;28;20220;-69
2022/01/19 22:10:10;;;;;;;2.80;1.37;;;17.60;63.90;;;;;;10485923;28;20588;-69
2022/01/19 22:15:33;;;;;;;1.63;1.00;;;17.70;63.90;;;;;;10472479;28;20189;-69
2022/01/19 22:20:55;;;;;;;2.10;1.03;;;17.60;63.90;;;;;;10472837;28;20518;-68
2022/01/19 22:26:19;;;;;;;2.97;1.33;;;17.60;63.90;;;;;;10460927;22;20232;-67
2022/01/19 22:31:41;;;;;;;2.80;1.10;;;17.60;63.90;;;;;;10427247;28;20223;-66
2022/01/19 22:37:04;;;;;;;1.60;1.27;;;17.70;63.90;;;;;;10415033;28;20603;-67
2022/01/19 22:42:27;;;;;;;4.50;1.40;;;17.60;63.70;;;;;;10403702;28;20567;-67
2022/01/19 22:47:49;;;;;;;2.73;1.30;;;17.70;64.00;;;;;;10392466;28;20202;-67
2022/01/19 22:53:11;;;;;;;2.50;1.37;;;17.60;63.60;;;;;;10414529;28;20217;-68
2022/01/19 22:58:35;;;;;;;2.43;1.30;;;17.60;63.80;;;;;;10400934;28;20600;-66
2022/01/19 23:03:57;;;;;;;2.37;1.23;;;17.70;63.80;;;;;;10414784;28;20283;-67
2022/01/19 23:09:19;;;;;;;3.57;1.43;;;17.70;63.80;;;;;;10415887;28;20205;-67
2022/01/19 23:14:43;;;;;;;2.30;1.40;;;17.60;63.70;;;;;;10414078;28;20217;-67
2022/01/19 23:20:06;;;;;;;2.43;1.47;;;17.70;63.70;;;;;;10399971;28;20198;-68
2022/01/19 23:25:28;;;;;;;3.17;1.27;;;17.60;63.60;;;;;;10407778;28;20217;-67
2022/01/19 23:30:52;;;;;;;2.73;1.27;;;17.60;63.70;;;;;;10377068;28;20241;-68
2022/01/19 23:36:14;;;;;;;3.77;1.67;;;17.60;63.60;;;;;;10386092;28;20697;-68
2022/01/19 23:52:57;;;;;;;3.97;1.40;;;17.60;63.60;;;;;;10396269;28;20347;-67
2022/01/19 23:58:22;;;;;;;4.03;1.60;;;17.60;63.60;;;;;;10410331;28;20665;-66
